sensor_id;sensor_type;location;lat;lon;timestamp;P1;durP1;ratioP1;P2;durP2;ratioP2
16177;SDS011;8195;51.220;9.746;2023-12-20T07:43:25;8.73;;;6.07;;
16177;SDS011;8195;51.220;9.746;2023-12-20T07:47:46;9.87;;;6.47;;
16177;SDS011;8195;51.220;9.746;2023-12-20T07:52:06;11.67;;;6.80;;
16177;SDS011;8195;51.220;9.746;2023-12-20T07:56:26;9.73;;;6.33;;
16177;SDS011;8195;51.220;9.746;2023-12-20T08:00:47;9.93;;;6.40;;
16177;SDS011;8195;51.220;9.746;2023-12-20T08:05:07;9.47;;;6.73;;
16177;SDS011;8195;51.220;9.746;2023-12-20T08:09:27;8.40;;;6.57;;
16177;SDS011;8195;51.220;9.746;2023-12-20T08:13:48;9.27;;;6.13;;
16177;SDS011;8195;51.220;9.746;2023-12-20T08:18:08;6.63;;;5.40;;
16177;SDS011;8195;51.220;9.746;2023-12-20T08:22:29;8.43;;;5.30;;
16177;SDS011;8195;51.220;9.746;2023-12-20T08:26:50;9.43;;;5.77;;
16177;SDS011;8195;51.220;9.746;2023-12-20T08:31:15;6.57;;;5.13;;
16177;SDS011;8195;51.220;9.746;2023-12-20T08:35:36;7.63;;;5.63;;
16177;SDS011;8195;51.220;9.746;2023-12-20T08:39:56;8.70;;;6.13;;
16177;SDS011;8195;51.220;9.746;2023-12-20T08:44:17;8.20;;;5.30;;
16177;SDS011;8195;51.220;9.746;2023-12-20T08:48:37;6.63;;;5.20;;
16177;SDS011;8195;51.220;9.746;2023-12-20T08:52:57;7.70;;;4.77;;
16177;SDS011;8195;51.220;9.746;2023-12-20T08:57:19;9.80;;;5.93;;
16177;SDS011;8195;51.220;9.746;2023-12-20T09:01:40;10.73;;;9.73;;
16177;SDS011;8195;51.220;9.746;2023-12-20T09:06:00;10.83;;;7.10;;
16177;SDS011;8195;51.220;9.746;2023-12-20T09:10:20;8.83;;;5.17;;
16177;SDS011;8195;51.220;9.746;2023-12-20T09:14:41;15.30;;;5.93;;
16177;SDS011;8195;51.220;9.746;2023-12-20T09:19:01;9.83;;;5.30;;
16177;SDS011;8195;51.220;9.746;2023-12-20T09:23:21;5.17;;;4.67;;
16177;SDS011;8195;51.220;9.746;2023-12-20T09:27:42;7.30;;;4.83;;
16177;SDS011;8195;51.220;9.746;2023-12-20T09:32:02;8.17;;;5.43;;
16177;SDS011;8195;51.220;9.746;2023-12-20T09:36:22;8.80;;;5.30;;
16177;SDS011;8195;51.220;9.746;2023-12-20T09:40:43;9.27;;;5.43;;
16177;SDS011;8195;51.220;9.746;2023-12-20T09:45:03;8.67;;;5.60;;
16177;SDS011;8195;51.220;9.746;2023-12-20T09:49:28;8.87;;;5.17;;
16177;SDS011;8195;51.220;9.746;2023-12-20T09:53:50;9.67;;;6.27;;
16177;SDS011;8195;51.220;9.746;2023-12-20T09:58:11;8.63;;;5.63;;
16177;SDS011;8195;51.220;9.746;2023-12-20T10:02:32;9.33;;;6.40;;
16177;SDS011;8195;51.220;9.746;2023-12-20T10:06:52;12.13;;;6.70;;
16177;SDS011;8195;51.220;9.746;2023-12-20T10:11:12;10.73;;;6.57;;
16177;SDS011;8195;51.220;9.746;2023-12-20T10:15:33;9.73;;;6.10;;
16177;SDS011;8195;51.220;9.746;2023-12-20T10:19:54;9.17;;;6.17;;
16177;SDS011;8195;51.220;9.746;2023-12-20T10:24:17;10.83;;;5.93;;
16177;SDS011;8195;51.220;9.746;2023-12-20T10:28:38;8.63;;;6.37;;
16177;SDS011;8195;51.220;9.746;2023-12-20T10:32:58;6.77;;;5.97;;
16177;SDS011;8195;51.220;9.746;2023-12-20T10:37:18;12.27;;;6.70;;
16177;SDS011;8195;51.220;9.746;2023-12-20T10:41:39;10.77;;;7.03;;
16177;SDS011;8195;51.220;9.746;2023-12-20T10:46:00;13.30;;;7.03;;
16177;SDS011;8195;51.220;9.746;2023-12-20T10:50:23;7.97;;;6.77;;
16177;SDS011;8195;51.220;9.746;2023-12-20T10:54:44;9.80;;;7.20;;
16177;SDS011;8195;51.220;9.746;2023-12-20T10:59:04;8.37;;;6.27;;
16177;SDS011;8195;51.220;9.746;2023-12-20T11:03:26;7.13;;;5.83;;
16177;SDS011;8195;51.220;9.746;2023-12-20T11:07:51;10.13;;;6.33;;
16177;SDS011;8195;51.220;9.746;2023-12-20T11:12:16;7.77;;;5.77;;
16177;SDS011;8195;51.220;9.746;2023-12-20T11:16:40;11.23;;;6.40;;
16177;SDS011;8195;51.220;9.746;2023-12-20T11:21:01;8.77;;;5.43;;
16177;SDS011;8195;51.220;9.746;2023-12-20T11:25:23;10.13;;;6.07;;
16177;SDS011;8195;51.220;9.746;2023-12-20T11:29:43;9.93;;;5.90;;
16177;SDS011;8195;51.220;9.746;2023-12-20T11:34:14;9.73;;;5.83;;
16177;SDS011;8195;51.220;9.746;2023-12-20T11:38:37;8.87;;;6.23;;
16177;SDS011;8195;51.220;9.746;2023-12-20T11:42:58;6.70;;;5.87;;
16177;SDS011;8195;51.220;9.746;2023-12-20T11:47:18;11.63;;;7.70;;
16177;SDS011;8195;51.220;9.746;2023-12-20T11:51:42;7.73;;;6.83;;
16177;SDS011;8195;51.220;9.746;2023-12-20T11:56:03;6.07;;;5.47;;
16177;SDS011;8195;51.220;9.746;2023-12-20T12:00:27;10.87;;;6.47;;
16177;SDS011;8195;51.220;9.746;2023-12-20T12:04:50;8.30;;;6.07;;
16177;SDS011;8195;51.220;9.746;2023-12-20T12:09:11;7.63;;;5.73;;
16177;SDS011;8195;51.220;9.746;2023-12-20T12:13:31;5.40;;;4.57;;
16177;SDS011;8195;51.220;9.746;2023-12-20T12:17:55;7.97;;;5.07;;
16177;SDS011;8195;51.220;9.746;2023-12-20T12:22:16;5.93;;;5.00;;
16177;SDS011;8195;51.220;9.746;2023-12-20T12:26:36;7.20;;;5.00;;
16177;SDS011;8195;51.220;9.746;2023-12-20T12:31:00;6.50;;;5.00;;
16177;SDS011;8195;51.220;9.746;2023-12-20T12:35:21;7.57;;;5.20;;
16177;SDS011;8195;51.220;9.746;2023-12-20T12:39:41;7.17;;;5.07;;
16177;SDS011;8195;51.220;9.746;2023-12-20T12:44:02;6.77;;;5.10;;
16177;SDS011;8195;51.220;9.746;2023-12-20T12:48:22;6.93;;;5.23;;
16177;SDS011;8195;51.220;9.746;2023-12-20T12:52:42;8.20;;;6.20;;
16177;SDS011;8195;51.220;9.746;2023-12-20T12:57:03;5.60;;;5.10;;
16177;SDS011;8195;51.220;9.746;2023-12-20T13:01:23;7.57;;;5.30;;
16177;SDS011;8195;51.220;9.746;2023-12-20T13:05:44;8.03;;;5.40;;
16177;SDS011;8195;51.220;9.746;2023-12-20T13:10:04;6.63;;;4.97;;
16177;SDS011;8195;51.220;9.746;2023-12-20T13:14:25;6.07;;;5.17;;
16177;SDS011;8195;51.220;9.746;2023-12-20T13:18:45;7.53;;;5.50;;
16177;SDS011;8195;51.220;9.746;2023-12-20T13:23:06;5.67;;;4.97;;
16177;SDS011;8195;51.220;9.746;2023-12-20T13:27:26;7.97;;;5.00;;
16177;SDS011;8195;51.220;9.746;2023-12-20T13:31:46;6.90;;;5.13;;
16177;SDS011;8195;51.220;9.746;2023-12-20T13:36:07;6.47;;;5.23;;
16177;SDS011;8195;51.220;9.746;2023-12-20T13:40:27;6.67;;;5.27;;
16177;SDS011;8195;51.220;9.746;2023-12-20T13:44:48;6.77;;;5.03;;
16177;SDS011;8195;51.220;9.746;2023-12-20T13:49:09;5.87;;;5.23;;
16177;SDS011;8195;51.220;9.746;2023-12-20T13:53:30;5.30;;;4.57;;
16177;SDS011;8195;51.220;9.746;2023-12-20T13:57:51;6.40;;;5.17;;
16177;SDS011;8195;51.220;9.746;2023-12-20T14:02:11;6.30;;;5.40;;
16177;SDS011;8195;51.220;9.746;2023-12-20T14:06:31;6.17;;;5.00;;
16177;SDS011;8195;51.220;9.746;2023-12-20T14:10:52;6.60;;;5.20;;
16177;SDS011;8195;51.220;9.746;2023-12-20T14:15:13;6.43;;;4.93;;
16177;SDS011;8195;51.220;9.746;2023-12-20T14:19:33;4.90;;;4.40;;
16177;SDS011;8195;51.220;9.746;2023-12-20T14:23:53;5.80;;;5.20;;
16177;SDS011;8195;51.220;9.746;2023-12-20T14:28:14;6.37;;;5.07;;
16177;SDS011;8195;51.220;9.746;2023-12-20T14:32:34;5.57;;;5.07;;
16177;SDS011;8195;51.220;9.746;2023-12-20T14:36:55;6.47;;;5.87;;
16177;SDS011;8195;51.220;9.746;2023-12-20T14:41:15;7.50;;;5.40;;
16177;SDS011;8195;51.220;9.746;2023-12-20T14:45:36;8.50;;;6.47;;
16177;SDS011;8195;51.220;9.746;2023-12-20T14:49:57;8.30;;;5.20;;
16177;SDS011;8195;51.220;9.746;2023-12-20T14:54:17;7.87;;;7.07;;
16177;SDS011;8195;51.220;9.746;2023-12-20T14:58:37;7.23;;;6.53;;
16177;SDS011;8195;51.220;9.746;2023-12-20T15:02:58;7.73;;;6.27;;
16177;SDS011;8195;51.220;9.746;2023-12-20T15:07:18;7.70;;;6.73;;
16177;SDS011;8195;51.220;9.746;2023-12-20T15:11:39;8.07;;;6.60;;
16177;SDS011;8195;51.220;9.746;2023-12-20T15:16:00;6.97;;;6.27;;
16177;SDS011;8195;51.220;9.746;2023-12-20T15:20:21;9.37;;;6.40;;
16177;SDS011;8195;51.220;9.746;2023-12-20T15:24:41;7.23;;;6.43;;
16177;SDS011;8195;51.220;9.746;2023-12-20T15:29:01;7.30;;;6.20;;
16177;SDS011;8195;51.220;9.746;2023-12-20T15:33:22;7.63;;;6.10;;
16177;SDS011;8195;51.220;9.746;2023-12-20T15:37:42;6.90;;;5.83;;
16177;SDS011;8195;51.220;9.746;2023-12-20T15:42:03;7.33;;;5.70;;
16177;SDS011;8195;51.220;9.746;2023-12-20T15:46:24;8.20;;;5.93;;
16177;SDS011;8195;51.220;9.746;2023-12-20T15:50:44;8.10;;;5.53;;
16177;SDS011;8195;51.220;9.746;2023-12-20T15:55:06;6.23;;;4.77;;
16177;SDS011;8195;51.220;9.746;2023-12-20T15:59:27;6.77;;;4.87;;
16177;SDS011;8195;51.220;9.746;2023-12-20T16:03:48;5.83;;;5.20;;
16177;SDS011;8195;51.220;9.746;2023-12-20T16:08:09;6.87;;;5.40;;
16177;SDS011;8195;51.220;9.746;2023-12-20T16:12:29;6.73;;;5.57;;
16177;SDS011;8195;51.220;9.746;2023-12-20T16:16:49;8.70;;;6.23;;
16177;SDS011;8195;51.220;9.746;2023-12-20T16:21:10;7.23;;;6.37;;
16177;SDS011;8195;51.220;9.746;2023-12-20T16:25:30;7.53;;;6.17;;
16177;SDS011;8195;51.220;9.746;2023-12-20T16:29:51;8.17;;;5.83;;
16177;SDS011;8195;51.220;9.746;2023-12-20T16:34:11;8.00;;;6.50;;
16177;SDS011;8195;51.220;9.746;2023-12-20T16:38:31;7.60;;;6.37;;
16177;SDS011;8195;51.220;9.746;2023-12-20T16:42:52;7.77;;;6.60;;
16177;SDS011;8195;51.220;9.746;2023-12-20T16:47:13;14.30;;;12.10;;
16177;SDS011;8195;51.220;9.746;2023-12-20T16:51:33;8.17;;;6.60;;
16177;SDS011;8195;51.220;9.746;2023-12-20T16:55:53;7.87;;;7.17;;
16177;SDS011;8195;51.220;9.746;2023-12-20T17:00:14;10.63;;;9.63;;
16177;SDS011;8195;51.220;9.746;2023-12-20T17:04:35;8.13;;;7.23;;
16177;SDS011;8195;51.220;9.746;2023-12-20T17:08:55;7.47;;;6.50;;
16177;SDS011;8195;51.220;9.746;2023-12-20T17:13:15;8.27;;;6.37;;
16177;SDS011;8195;51.220;9.746;2023-12-20T17:17:36;8.53;;;6.80;;
16177;SDS011;8195;51.220;9.746;2023-12-20T17:26:11;7.10;;;6.40;;
16177;SDS011;8195;51.220;9.746;2023-12-20T17:30:32;8.17;;;6.80;;
16177;SDS011;8195;51.220;9.746;2023-12-20T17:34:53;10.47;;;6.70;;
16177;SDS011;8195;51.220;9.746;2023-12-20T17:39:13;8.43;;;6.97;;
16177;SDS011;8195;51.220;9.746;2023-12-20T17:43:34;10.40;;;7.47;;
16177;SDS011;8195;51.220;9.746;2023-12-20T17:47:54;7.60;;;6.33;;
16177;SDS011;8195;51.220;9.746;2023-12-20T17:52:14;8.40;;;7.50;;
16177;SDS011;8195;51.220;9.746;2023-12-20T17:56:35;9.63;;;7.07;;
16177;SDS011;8195;51.220;9.746;2023-12-20T18:00:55;8.53;;;7.37;;
16177;SDS011;8195;51.220;9.746;2023-12-20T18:05:15;11.33;;;7.40;;
16177;SDS011;8195;51.220;9.746;2023-12-20T18:09:36;8.90;;;7.60;;
16177;SDS011;8195;51.220;9.746;2023-12-20T18:13:56;10.60;;;8.37;;
16177;SDS011;8195;51.220;9.746;2023-12-20T18:18:16;11.10;;;8.17;;
16177;SDS011;8195;51.220;9.746;2023-12-20T18:22:37;11.60;;;8.87;;
16177;SDS011;8195;51.220;9.746;2023-12-20T18:26:57;11.77;;;9.13;;
16177;SDS011;8195;51.220;9.746;2023-12-20T18:31:17;11.90;;;9.53;;
16177;SDS011;8195;51.220;9.746;2023-12-20T18:35:39;14.63;;;9.30;;
16177;SDS011;8195;51.220;9.746;2023-12-20T18:40:00;15.43;;;10.37;;
16177;SDS011;8195;51.220;9.746;2023-12-20T18:44:21;10.90;;;9.13;;
16177;SDS011;8195;51.220;9.746;2023-12-20T18:48:43;12.73;;;9.90;;
16177;SDS011;8195;51.220;9.746;2023-12-20T18:53:03;12.10;;;9.17;;
16177;SDS011;8195;51.220;9.746;2023-12-20T18:57:24;10.77;;;8.93;;
16177;SDS011;8195;51.220;9.746;2023-12-20T19:01:44;11.07;;;9.00;;
16177;SDS011;8195;51.220;9.746;2023-12-20T19:06:05;9.90;;;8.90;;
16177;SDS011;8195;51.220;9.746;2023-12-20T19:10:25;12.30;;;8.70;;
16177;SDS011;8195;51.220;9.746;2023-12-20T19:14:46;7.83;;;7.03;;
16177;SDS011;8195;51.220;9.746;2023-12-20T19:19:06;9.77;;;7.90;;
16177;SDS011;8195;51.220;9.746;2023-12-20T19:23:26;7.90;;;7.10;;
16177;SDS011;8195;51.220;9.746;2023-12-20T19:27:47;9.10;;;7.13;;
16177;SDS011;8195;51.220;9.746;2023-12-20T19:32:07;11.00;;;7.70;;
16177;SDS011;8195;51.220;9.746;2023-12-20T19:36:27;10.73;;;8.57;;
16177;SDS011;8195;51.220;9.746;2023-12-20T19:40:48;11.33;;;9.00;;
16177;SDS011;8195;51.220;9.746;2023-12-20T19:45:08;11.80;;;10.17;;
16177;SDS011;8195;51.220;9.746;2023-12-20T19:49:29;9.47;;;8.40;;
16177;SDS011;8195;51.220;9.746;2023-12-20T19:53:50;10.43;;;9.37;;
16177;SDS011;8195;51.220;9.746;2023-12-20T19:58:11;11.33;;;9.17;;
16177;SDS011;8195;51.220;9.746;2023-12-20T20:02:31;14.60;;;10.03;;
16177;SDS011;8195;51.220;9.746;2023-12-20T20:06:52;11.93;;;10.43;;
16177;SDS011;8195;51.220;9.746;2023-12-20T20:11:12;15.00;;;13.50;;
16177;SDS011;8195;51.220;9.746;2023-12-20T20:15:32;13.23;;;10.57;;
16177;SDS011;8195;51.220;9.746;2023-12-20T20:19:54;11.10;;;9.53;;
16177;SDS011;8195;51.220;9.746;2023-12-20T20:24:14;12.20;;;10.33;;
16177;SDS011;8195;51.220;9.746;2023-12-20T20:28:35;12.30;;;10.80;;
16177;SDS011;8195;51.220;9.746;2023-12-20T20:32:55;15.67;;;10.97;;
16177;SDS011;8195;51.220;9.746;2023-12-20T20:37:16;12.40;;;10.73;;
16177;SDS011;8195;51.220;9.746;2023-12-20T20:41:37;11.57;;;10.33;;
16177;SDS011;8195;51.220;9.746;2023-12-20T20:45:57;10.57;;;8.90;;
16177;SDS011;8195;51.220;9.746;2023-12-20T20:50:18;11.20;;;9.40;;
16177;SDS011;8195;51.220;9.746;2023-12-20T20:54:38;11.00;;;8.73;;
16177;SDS011;8195;51.220;9.746;2023-12-20T20:58:58;11.37;;;9.30;;
16177;SDS011;8195;51.220;9.746;2023-12-20T21:03:19;11.53;;;9.37;;
16177;SDS011;8195;51.220;9.746;2023-12-20T21:07:39;8.97;;;8.03;;
16177;SDS011;8195;51.220;9.746;2023-12-20T21:11:59;9.43;;;8.00;;
16177;SDS011;8195;51.220;9.746;2023-12-20T21:16:20;9.97;;;8.13;;
16177;SDS011;8195;51.220;9.746;2023-12-20T21:20:40;11.40;;;8.90;;
16177;SDS011;8195;51.220;9.746;2023-12-20T21:25:00;9.60;;;8.13;;
16177;SDS011;8195;51.220;9.746;2023-12-20T21:29:21;11.13;;;9.20;;
16177;SDS011;8195;51.220;9.746;2023-12-20T21:33:41;10.60;;;8.00;;
16177;SDS011;8195;51.220;9.746;2023-12-20T21:38:02;9.60;;;7.73;;
16177;SDS011;8195;51.220;9.746;2023-12-20T21:42:22;9.10;;;8.00;;
16177;SDS011;8195;51.220;9.746;2023-12-20T21:46:42;9.03;;;8.13;;
16177;SDS011;8195;51.220;9.746;2023-12-20T21:51:03;8.80;;;7.90;;
16177;SDS011;8195;51.220;9.746;2023-12-20T21:55:23;8.30;;;7.50;;
16177;SDS011;8195;51.220;9.746;2023-12-20T21:59:44;9.97;;;7.93;;
16177;SDS011;8195;51.220;9.746;2023-12-20T22:04:04;9.80;;;8.80;;
16177;SDS011;8195;51.220;9.746;2023-12-20T22:08:24;10.70;;;9.70;;
16177;SDS011;8195;51.220;9.746;2023-12-20T22:12:45;9.03;;;8.13;;
16177;SDS011;8195;51.220;9.746;2023-12-20T22:17:05;9.73;;;6.87;;
16177;SDS011;8195;51.220;9.746;2023-12-20T22:21:26;7.00;;;6.20;;
16177;SDS011;8195;51.220;9.746;2023-12-20T22:25:46;6.63;;;5.50;;
16177;SDS011;8195;51.220;9.746;2023-12-20T22:30:06;6.63;;;5.50;;
16177;SDS011;8195;51.220;9.746;2023-12-20T22:34:27;4.33;;;3.93;;
16177;SDS011;8195;51.220;9.746;2023-12-20T22:38:47;4.83;;;4.17;;
16177;SDS011;8195;51.220;9.746;2023-12-20T22:43:08;4.80;;;4.13;;
16177;SDS011;8195;51.220;9.746;2023-12-20T22:47:28;5.77;;;4.70;;
16177;SDS011;8195;51.220;9.746;2023-12-20T22:51:49;5.27;;;4.27;;
16177;SDS011;8195;51.220;9.746;2023-12-20T22:56:09;4.87;;;4.30;;
16177;SDS011;8195;51.220;9.746;2023-12-20T23:00:29;6.03;;;4.70;;
16177;SDS011;8195;51.220;9.746;2023-12-20T23:04:50;5.10;;;4.10;;
16177;SDS011;8195;51.220;9.746;2023-12-20T23:09:10;4.60;;;3.90;;
16177;SDS011;8195;51.220;9.746;2023-12-20T23:13:31;4.53;;;3.30;;
16177;SDS011;8195;51.220;9.746;2023-12-20T23:17:51;4.60;;;3.87;;
16177;SDS011;8195;51.220;9.746;2023-12-20T23:22:11;5.57;;;4.03;;
16177;SDS011;8195;51.220;9.746;2023-12-20T23:26:32;4.03;;;3.63;;
16177;SDS011;8195;51.220;9.746;2023-12-20T23:30:52;3.80;;;3.50;;
16177;SDS011;8195;51.220;9.746;2023-12-20T23:35:13;3.83;;;3.03;;
16177;SDS011;8195;51.220;9.746;2023-12-20T23:39:33;3.93;;;3.40;;
16177;SDS011;8195;51.220;9.746;2023-12-20T23:43:53;4.93;;;4.10;;
16177;SDS011;8195;51.220;9.746;2023-12-20T23:48:17;4.90;;;3.30;;
16177;SDS011;8195;51.220;9.746;2023-12-20T23:52:39;3.80;;;3.40;;
16177;SDS011;8195;51.220;9.746;2023-12-20T23:56:59;4.40;;;3.30;;
